Time;durP1;ratioP1;P1;durP2;ratioP2;P2;SDS_P1;SDS_P2;PMS_P1;PMS_P2;Temp;Humidity;BMP_temperature;BMP_pressure;BME280_temperature;BME280_humidity;BME280_pressure;Samples;Min_cycle;Max_cycle;Signal;HPM_P1;HPM_P2
2022/11/03 00:01:44;;;;;;;;;0.67;0.67;;;;;24.09;43.00;101166.00;5015626;28;45377;-71
2022/11/03 00:04:11;;;;;;;;;4.67;0.33;;;;;24.04;43.10;101155.94;5015403;28;45305;-72
2022/11/03 00:06:38;;;;;;;;;1.00;1.00;;;;;24.11;43.06;101169.31;5015833;28;45462;-72
2022/11/03 00:09:06;;;;;;;;;1.00;1.00;;;;;24.13;43.18;101164.63;5015303;28;45439;-72
2022/11/03 00:11:33;;;;;;;;;2.00;0.67;;;;;24.13;43.21;101163.78;5015343;28;48226;-72
2022/11/03 00:13:59;;;;;;;;;2.00;2.00;;;;;24.14;42.81;101152.16;5025352;28;45387;-72
2022/11/03 00:16:25;;;;;;;;;1.00;0.00;;;;;24.14;43.02;101147.66;5037328;28;45439;-72
2022/11/03 00:18:51;;;;;;;;;1.00;1.00;;;;;24.15;42.95;101151.97;5037554;28;45531;-72
2022/11/03 00:21:16;;;;;;;;;1.67;1.00;;;;;24.16;43.05;101145.66;5037382;28;46216;-72
2022/11/03 00:23:43;;;;;;;;;1.33;1.00;;;;;24.17;43.45;101143.81;5037023;28;45269;-72
2022/11/03 00:26:14;;;;;;;;;0.00;0.00;;;;;24.19;42.88;101147.09;5037287;28;45509;-72
2022/11/03 00:28:42;;;;;;;;;0.00;0.00;;;;;24.18;42.94;101143.63;5037367;28;45301;-71
2022/11/03 00:31:13;;;;;;;;;0.00;0.00;;;;;24.13;43.02;101132.72;5037234;28;47129;-71
2022/11/03 00:33:39;;;;;;;;;2.33;1.00;;;;;24.19;43.42;101136.47;5037107;28;45341;-72
2022/11/03 00:36:06;;;;;;;;;0.67;0.67;;;;;24.19;43.08;101128.50;5036913;28;45368;-71
2022/11/03 00:38:32;;;;;;;;;0.00;0.00;;;;;24.19;42.91;101128.50;5037271;28;45460;-72
2022/11/03 00:41:00;;;;;;;;;0.67;0.00;;;;;24.21;43.06;101130.94;5037040;28;46154;-72
2022/11/03 00:43:27;;;;;;;;;1.00;1.00;;;;;24.18;43.21;101127.66;5037197;28;45378;-72
2022/11/03 00:45:53;;;;;;;;;1.00;1.00;;;;;24.18;43.02;101119.69;5037465;28;45284;-72
2022/11/03 00:48:28;;;;;;;;;0.00;0.00;;;;;24.21;43.20;101117.66;5037223;28;45442;-72
2022/11/03 00:50:54;;;;;;;;;1.00;0.33;;;;;24.20;43.20;101111.50;5036599;28;46166;-71
2022/11/03 00:53:19;;;;;;;;;0.00;0.00;;;;;24.20;43.16;101103.53;5037012;28;45341;-73
2022/11/03 00:55:50;;;;;;;;;1.00;1.00;;;;;24.22;43.52;101104.19;5037126;28;45333;-72
2022/11/03 00:58:15;;;;;;;;;0.00;0.00;;;;;24.21;43.17;101094.56;5037093;28;45378;-72
2022/11/03 01:00:41;;;;;;;;;1.33;1.33;;;;;24.19;43.05;101093.94;5035536;28;47503;-72
2022/11/03 01:03:06;;;;;;;;;2.33;1.00;;;;;24.21;43.19;101089.25;5036938;28;45333;-71
2022/11/03 01:08:15;;;;;;;;;1.00;0.00;;;;;24.21;42.90;101078.63;5036791;28;45454;-72
2022/11/03 01:11:42;;;;;;;;;1.00;1.00;;;;;24.22;43.18;101076.78;5036628;28;48554;-72
2022/11/03 01:13:26;;;;;;;;;1.67;0.67;;;;;24.11;43.43;101057.66;5036518;28;45450;-72
2022/11/03 01:15:56;;;;;;;;;0.00;0.00;;;;;24.20;42.90;101062.88;5036599;28;45357;-72
2022/11/03 01:18:21;;;;;;;;;1.00;1.00;;;;;24.20;43.25;101062.88;5036686;28;45509;-72
2022/11/03 01:20:53;;;;;;;;;2.00;1.00;;;;;24.20;43.06;101062.88;5036038;28;47275;-72
2022/11/03 01:23:19;;;;;;;;;1.00;1.00;;;;;24.18;43.17;101053.22;5036722;28;45495;-72
2022/11/03 01:25:44;;;;;;;;;0.00;0.00;;;;;24.20;42.94;101046.91;5036380;28;45341;-73
2022/11/03 01:28:09;;;;;;;;;0.33;0.33;;;;;24.18;43.29;101041.78;5052133;28;45447;-72
2022/11/03 01:30:34;;;;;;;;;1.33;1.00;;;;;24.19;43.10;101035.44;5036472;28;46295;-72
2022/11/03 01:33:00;;;;;;;;;0.00;0.00;;;;;24.21;43.41;101029.94;5036451;28;45379;-72
2022/11/03 01:35:25;;;;;;;;;1.00;1.00;;;;;24.21;43.58;101037.91;5036104;28;45321;-72
2022/11/03 01:37:50;;;;;;;;;1.00;1.00;;;;;24.11;43.14;101015.13;5036075;28;51819;-72
2022/11/03 01:40:16;;;;;;;;;0.33;0.33;;;;;24.20;43.17;101017.66;5036214;28;48932;-71
2022/11/03 01:42:41;;;;;;;;;3.00;1.00;;;;;24.13;43.33;100998.97;5036291;28;45313;-72
2022/11/03 01:45:08;;;;;;;;;0.33;0.33;;;;;24.09;43.36;100998.56;5036261;28;45304;-71
2022/11/03 01:47:34;;;;;;;;;1.00;1.00;;;;;24.21;43.27;101008.66;5036282;28;45297;-71
2022/11/03 01:50:11;;;;;;;;;2.00;0.00;;;;;24.22;43.19;101002.34;5035670;28;47385;-71
2022/11/03 01:52:46;;;;;;;;;2.00;0.00;;;;;24.23;43.28;100990.69;5036194;28;45497;-71
2022/11/03 01:55:18;;;;;;;;;2.67;1.00;;;;;24.22;43.22;100995.19;5035544;28;45332;-71
2022/11/03 01:57:51;;;;;;;;;2.00;1.67;;;;;24.22;43.18;100989.88;5036151;28;45403;-71
2022/11/03 02:00:17;;;;;;;;;1.00;0.00;;;;;24.23;43.29;100996.81;5035874;28;46299;-71
2022/11/03 02:02:43;;;;;;;;;0.33;0.33;;;;;24.23;43.40;100990.69;5035935;28;45398;-72
2022/11/03 02:05:10;;;;;;;;;0.00;0.00;;;;;24.23;43.26;100986.19;5035562;28;45393;-71
2022/11/03 02:07:43;;;;;;;;;2.00;2.00;;;;;24.21;43.30;100979.41;5034577;28;45512;-71
2022/11/03 02:10:09;;;;;;;;;1.67;0.00;;;;;24.22;43.10;100976.59;5035797;28;45402;-71
2022/11/03 02:12:36;;;;;;;;;1.00;1.00;;;;;24.21;43.34;100964.31;5035723;28;45356;-71
2022/11/03 02:15:13;;;;;;;;;0.33;0.33;;;;;24.21;43.53;100966.13;5036044;28;45495;-72
2022/11/03 02:17:41;;;;;;;;;0.00;0.00;;;;;24.23;42.84;100967.59;5035131;28;45307;-71
2022/11/03 02:20:10;;;;;;;;;0.33;0.33;;;;;24.20;43.29;100959.19;5035701;28;46084;-71
2022/11/03 02:23:00;;;;;;;;;1.00;1.00;;;;;24.23;43.30;100961.44;5035686;28;45446;-72
2022/11/03 02:25:42;;;;;;;;;0.00;0.00;;;;;24.23;43.27;100953.47;5035515;28;45324;-71
2022/11/03 02:28:09;;;;;;;;;0.00;0.00;;;;;24.23;43.23;100948.16;5035574;28;45516;-71
2022/11/03 02:30:40;;;;;;;;;0.00;0.00;;;;;24.24;43.36;100947.13;5035469;28;45468;-71
2022/11/03 02:33:41;;;;;;;;;0.00;0.00;;;;;24.23;43.32;100929.53;5035149;28;45291;-71
2022/11/03 02:36:27;;;;;;;;;1.00;0.00;;;;;24.17;43.28;100920.53;5033781;28;45392;-71
2022/11/03 02:38:59;;;;;;;;;0.00;0.00;;;;;24.14;43.17;100908.44;5035636;28;45385;-72
2022/11/03 02:41:28;;;;;;;;;0.33;0.33;;;;;24.23;43.22;100916.25;5035443;28;46327;-71
2022/11/03 02:43:55;;;;;;;;;0.33;0.33;;;;;24.18;43.37;100906.19;5035494;28;45353;-71
2022/11/03 02:46:24;;;;;;;;;0.00;0.00;;;;;24.13;43.66;100890.00;5035453;28;45377;-71
2022/11/03 02:48:51;;;;;;;;;0.33;0.00;;;;;24.19;43.60;100899.88;5035084;28;45300;-71
2022/11/03 02:51:16;;;;;;;;;1.00;0.00;;;;;24.09;43.43;100876.28;5035351;28;47379;-71
2022/11/03 02:53:52;;;;;;;;;2.00;1.00;;;;;24.15;43.31;100878.16;5035017;28;45276;-71
2022/11/03 02:56:22;;;;;;;;;1.00;1.00;;;;;24.17;43.24;100878.78;5035397;28;45520;-72
2022/11/03 02:59:05;;;;;;;;;1.67;0.00;;;;;24.17;43.43;100870.81;5035451;28;45408;-71
2022/11/03 03:01:49;;;;;;;;;0.00;0.00;;;;;24.15;43.39;100864.88;5034764;28;45439;-71
2022/11/03 03:04:36;;;;;;;;;1.33;1.33;;;;;24.16;43.38;100855.91;5035041;28;45340;-71
2022/11/03 03:07:07;;;;;;;;;0.00;0.00;;;;;24.16;43.38;100850.56;5035307;28;45375;-71
2022/11/03 03:09:45;;;;;;;;;0.00;0.00;;;;;24.15;43.46;100851.59;5038658;28;45317;-71
2022/11/03 03:12:16;;;;;;;;;2.00;1.00;;;;;24.18;43.55;100848.53;5038418;28;46204;-71
2022/11/03 03:14:44;;;;;;;;;1.00;1.00;;;;;24.15;43.34;100842.78;5038473;28;45297;-71
2022/11/03 03:17:21;;;;;;;;;2.50;0.00;;;;;24.15;43.52;100838.28;5037930;28;45264;-71
2022/11/03 03:20:00;;;;;;;;;0.00;0.00;;;;;24.20;43.58;100848.34;5038470;28;45400;-71
2022/11/03 03:22:36;;;;;;;;;2.00;0.00;;;;;24.09;43.35;100828.47;5038506;28;46121;-71
2022/11/03 03:25:12;;;;;;;;;0.67;0.33;;;;;24.21;43.41;100836.69;5038025;28;45341;-71
2022/11/03 03:27:44;;;;;;;;;0.00;0.00;;;;;24.15;43.39;100819.69;5038564;28;45456;-71
2022/11/03 03:30:11;;;;;;;;;0.00;0.00;;;;;24.19;43.10;100828.09;5037964;28;45486;-71
2022/11/03 03:32:42;;;;;;;;;0.00;0.00;;;;;24.20;43.66;100813.78;5038290;28;46326;-71
2022/11/03 03:35:11;;;;;;;;;0.00;0.00;;;;;24.20;43.59;100808.47;5038277;28;45267;-71
2022/11/03 03:37:41;;;;;;;;;2.00;1.00;;;;;24.21;43.44;100806.63;5038314;28;45341;-71
2022/11/03 03:40:10;;;;;;;;;0.00;0.00;;;;;24.22;43.33;100797.66;5038242;28;45366;-71
2022/11/03 03:42:39;;;;;;;;;1.67;0.67;;;;;24.22;43.43;100808.28;5037960;28;46463;-71
2022/11/03 03:45:07;;;;;;;;;0.00;0.00;;;;;24.22;43.37;100806.44;5037722;28;45351;-72
2022/11/03 03:47:34;;;;;;;;;0.00;0.00;;;;;24.20;43.47;100805.00;5038108;28;45242;-71
2022/11/03 03:50:00;;;;;;;;;1.00;0.00;;;;;24.23;43.42;100804.59;5038328;28;45396;-71
2022/11/03 03:52:26;;;;;;;;;0.67;0.67;;;;;24.17;43.31;100795.59;5037810;28;45389;-71
2022/11/03 03:54:53;;;;;;;;;0.67;0.00;;;;;24.12;43.44;100785.53;5037793;28;45642;-71
2022/11/03 03:57:21;;;;;;;;;1.00;1.00;;;;;24.23;43.29;100781.50;5038083;28;45345;-71
2022/11/03 03:59:46;;;;;;;;;0.00;0.00;;;;;24.15;43.40;100774.50;5037624;28;45460;-71
2022/11/03 04:02:12;;;;;;;;;0.00;0.00;;;;;24.14;43.21;100761.41;5037773;28;45928;-71
2022/11/03 04:04:37;;;;;;;;;0.00;0.00;;;;;24.18;43.56;100770.63;5037763;28;45416;-72
2022/11/03 04:09:47;;;;;;;;;0.00;0.00;;;;;24.21;43.59;100764.91;5038023;28;45258;-71
2022/11/03 04:23:13;;;;;;;;;0.00;0.00;;;;;24.17;43.44;100739.75;5037349;28;45245;-71
2022/11/03 04:25:38;;;;;;;;;1.00;1.00;;;;;24.16;43.52;100749.56;5037240;28;45371;-72
2022/11/03 04:28:12;;;;;;;;;2.00;0.33;;;;;24.17;43.61;100740.56;5037242;28;45397;-71
2022/11/03 04:30:38;;;;;;;;;0.00;0.00;;;;;24.16;43.59;100740.75;5037466;28;45507;-71
2022/11/03 04:33:11;;;;;;;;;1.00;0.00;;;;;24.15;43.25;100726.66;5037158;28;47500;-71
2022/11/03 04:35:36;;;;;;;;;0.67;0.00;;;;;24.13;43.49;100711.91;5037219;28;45430;-72
2022/11/03 04:38:20;;;;;;;;;2.33;1.00;;;;;24.13;43.24;100694.13;5037435;28;45400;-71
2022/11/03 04:40:54;;;;;;;;;0.00;0.00;;;;;24.12;43.19;100689.84;5037257;28;45602;-71
2022/11/03 04:43:21;;;;;;;;;0.00;0.00;;;;;24.00;43.72;100655.03;5036845;28;45394;-72
2022/11/03 04:45:48;;;;;;;;;0.00;0.00;;;;;24.17;43.47;100678.63;5037072;28;45427;-71
2022/11/03 04:48:19;;;;;;;;;0.00;0.00;;;;;24.17;43.40;100679.41;5037216;28;45297;-71
2022/11/03 04:50:48;;;;;;;;;0.00;0.00;;;;;24.18;43.47;100680.25;5037209;28;45391;-71
2022/11/03 04:53:16;;;;;;;;;0.00;0.00;;;;;24.18;43.43;100665.13;5036923;28;46350;-72
2022/11/03 04:55:43;;;;;;;;;0.00;0.00;;;;;24.20;43.50;100651.63;5036961;28;45380;-72
2022/11/03 04:58:33;;;;;;;;;0.00;0.00;;;;;24.21;43.69;100665.75;5036741;28;45376;-71
2022/11/03 05:01:01;;;;;;;;;0.00;0.00;;;;;24.20;43.24;100666.78;5037095;28;45382;-71
2022/11/03 05:03:31;;;;;;;;;0.00;0.00;;;;;24.16;44.02;100650.41;5036719;28;46188;-72
2022/11/03 05:05:57;;;;;;;;;2.00;0.00;;;;;24.21;43.21;100657.75;5036803;28;45376;-71
2022/11/03 05:08:23;;;;;;;;;1.00;1.00;;;;;24.21;43.43;100647.13;5036933;28;45269;-72
2022/11/03 05:10:48;;;;;;;;;0.00;0.00;;;;;24.21;43.76;100660.41;5036918;28;45316;-71
2022/11/03 05:13:23;;;;;;;;;0.00;0.00;;;;;24.21;43.06;100663.09;5035078;28;47013;-71
2022/11/03 05:15:51;;;;;;;;;0.00;0.00;;;;;24.19;43.07;100655.31;5036625;28;45339;-71
2022/11/03 05:18:20;;;;;;;;;0.00;0.00;;;;;24.21;43.38;100655.09;5036653;28;45593;-71
2022/11/03 05:20:55;;;;;;;;;1.00;1.00;;;;;24.13;43.21;100646.28;5036659;28;45431;-72
2022/11/03 05:23:21;;;;;;;;;0.00;0.00;;;;;24.14;43.48;100653.25;5036335;28;46070;-72
2022/11/03 05:25:51;;;;;;;;;1.33;0.33;;;;;24.20;43.46;100656.16;5036257;28;45407;-71
2022/11/03 05:28:26;;;;;;;;;1.00;1.00;;;;;24.14;43.43;100639.97;5036283;28;45309;-71
2022/11/03 05:30:53;;;;;;;;;0.00;0.00;;;;;24.17;43.30;100639.56;5035649;28;45429;-71
2022/11/03 05:33:27;;;;;;;;;1.00;0.00;;;;;24.20;43.49;100635.66;5036284;28;47180;-71
2022/11/03 05:35:54;;;;;;;;;0.00;0.00;;;;;24.15;43.58;100628.31;5036276;28;45448;-71
2022/11/03 05:38:21;;;;;;;;;1.00;1.00;;;;;24.18;43.30;100627.91;5036491;28;45403;-71
2022/11/03 05:40:51;;;;;;;;;0.00;0.00;;;;;24.11;43.12;100607.66;5036078;28;45431;-71
2022/11/03 05:43:18;;;;;;;;;1.00;1.00;;;;;24.01;43.55;100586.78;5036139;28;47033;-71
2022/11/03 05:45:44;;;;;;;;;0.00;0.00;;;;;24.12;43.71;100601.31;5036228;28;45400;-71
2022/11/03 05:48:21;;;;;;;;;1.00;0.00;;;;;24.16;43.52;100594.56;5036164;28;45387;-71
2022/11/03 05:50:46;;;;;;;;;0.00;0.00;;;;;24.14;43.68;100586.81;5034981;28;45419;-72
2022/11/03 05:53:25;;;;;;;;;0.67;0.67;;;;;24.13;43.49;100579.03;5035938;28;46145;-72
2022/11/03 05:55:52;;;;;;;;;0.00;0.00;;;;;24.13;43.46;100560.41;5035781;28;45394;-71
2022/11/03 05:58:26;;;;;;;;;0.00;0.00;;;;;24.14;43.65;100559.41;5036118;28;45379;-71
2022/11/03 06:00:52;;;;;;;;;4.00;0.00;;;;;24.13;43.57;100545.28;5036114;28;45391;-71
2022/11/03 06:03:24;;;;;;;;;1.00;1.00;;;;;24.14;43.39;100535.50;5035834;28;46199;-71
2022/11/03 06:05:50;;;;;;;;;1.00;0.00;;;;;24.13;43.92;100532.00;5036169;28;45309;-71
2022/11/03 06:08:22;;;;;;;;;0.00;0.00;;;;;24.13;43.35;100521.38;5035951;28;45360;-71
2022/11/03 06:10:54;;;;;;;;;0.00;0.00;;;;;24.14;43.31;100516.88;5035571;28;45309;-71
2022/11/03 06:13:25;;;;;;;;;3.00;0.00;;;;;24.14;43.27;100507.06;5035838;28;46308;-71
2022/11/03 06:16:01;;;;;;;;;0.00;0.00;;;;;24.16;43.67;100498.88;5035520;28;45343;-71
2022/11/03 06:18:31;;;;;;;;;0.67;0.67;;;;;24.15;43.38;100495.41;5035580;28;45396;-71
2022/11/03 06:21:02;;;;;;;;;0.67;0.67;;;;;24.14;43.77;100490.31;5035811;28;45306;-71
2022/11/03 06:23:27;;;;;;;;;2.00;0.33;;;;;24.15;43.41;100476.81;5035615;28;45395;-72
2022/11/03 06:25:55;;;;;;;;;2.00;0.00;;;;;24.09;43.59;100459.03;5035087;28;45463;-72
2022/11/03 06:28:25;;;;;;;;;1.67;1.00;;;;;24.15;43.27;100454.72;5036041;28;45424;-72
2022/11/03 06:30:51;;;;;;;;;1.00;0.00;;;;;24.15;43.49;100460.84;5035392;28;45420;-71
2022/11/03 06:33:24;;;;;;;;;0.00;0.00;;;;;24.16;43.49;100467.81;5033599;28;45485;-74
2022/11/03 06:35:53;;;;;;;;;2.00;0.67;;;;;24.15;43.47;100473.31;5033611;28;45340;-73
2022/11/03 06:38:22;;;;;;;;;0.33;0.33;;;;;24.14;43.64;100461.91;5033861;28;45364;-71
2022/11/03 06:40:53;;;;;;;;;0.33;0.33;;;;;24.14;43.48;100467.22;5033570;28;45435;-74
2022/11/03 06:43:34;;;;;;;;;1.00;1.00;;;;;24.03;43.33;100447.38;5037014;28;46316;-72
2022/11/03 06:46:04;;;;;;;;;0.00;0.00;;;;;24.15;43.43;100465.34;5035946;28;45477;-69
2022/11/03 06:48:33;;;;;;;;;0.00;0.00;;;;;24.16;43.74;100464.34;5037539;28;45364;-69
2022/11/03 06:51:00;;;;;;;;;0.00;0.00;;;;;24.17;43.78;100458.00;5040114;28;45170;-69
2022/11/03 06:53:32;;;;;;;;;0.00;0.00;;;;;24.15;43.74;100452.88;5037476;28;45955;-69
2022/11/03 06:55:58;;;;;;;;;0.00;0.00;;;;;24.18;44.00;100451.66;5036346;28;45470;-70
2022/11/03 06:58:33;;;;;;;;;0.33;0.00;;;;;24.20;43.89;100438.19;5044018;28;45272;-69
2022/11/03 07:01:02;;;;;;;;;0.00;0.00;;;;;24.22;43.74;100438.78;5044318;28;45441;-69
2022/11/03 07:03:32;;;;;;;;;1.00;0.00;;;;;24.23;43.76;100435.09;5048976;28;46231;-69
2022/11/03 07:06:13;;;;;;;;;0.67;0.67;;;;;24.23;43.86;100446.53;5058780;28;45407;-72
2022/11/03 07:08:42;;;;;;;;;0.00;0.00;;;;;24.21;43.84;100437.97;5040089;28;45468;-71
2022/11/03 07:11:25;;;;;;;;;1.00;1.00;;;;;24.20;43.76;100435.53;5045248;28;45514;-71
2022/11/03 07:13:54;;;;;;;;;0.00;0.00;;;;;24.18;43.74;100436.53;5036219;28;45344;-71
2022/11/03 07:16:30;;;;;;;;;0.00;0.00;;;;;24.18;43.90;100436.53;5037485;28;45392;-71
2022/11/03 07:18:59;;;;;;;;;0.00;0.00;;;;;24.17;43.89;100434.88;5037871;28;45398;-71
2022/11/03 07:21:44;;;;;;;;;0.00;0.00;;;;;24.17;43.85;100436.75;5038182;28;45592;-71
2022/11/03 07:24:17;;;;;;;;;0.00;0.00;;;;;24.18;43.92;100451.66;5037722;28;47107;-72
2022/11/03 07:26:43;;;;;;;;;1.00;1.00;;;;;24.21;43.99;100453.09;5038270;28;45416;-71
2022/11/03 07:29:21;;;;;;;;;0.00;0.00;;;;;24.14;43.94;100440.63;5037090;28;45363;-72
2022/11/03 07:31:48;;;;;;;;;0.33;0.33;;;;;24.19;44.20;100434.69;5038417;28;45411;-72
2022/11/03 07:34:19;;;;;;;;;1.00;1.00;;;;;24.15;43.67;100417.50;5038067;28;45284;-72
2022/11/03 07:36:45;;;;;;;;;0.00;0.00;;;;;24.21;44.05;100426.50;5037812;28;45301;-72
2022/11/03 07:39:17;;;;;;;;;1.00;1.00;;;;;24.19;43.83;100410.78;5038304;28;45332;-72
2022/11/03 07:41:43;;;;;;;;;1.00;1.00;;;;;24.17;44.05;100413.63;5038246;28;45265;-72
2022/11/03 07:44:14;;;;;;;;;1.00;1.00;;;;;24.17;43.53;100404.84;5038035;28;46075;-72
2022/11/03 07:46:42;;;;;;;;;1.67;1.67;;;;;24.17;43.96;100389.69;5037967;28;45289;-72
2022/11/03 07:49:18;;;;;;;;;0.00;0.00;;;;;24.17;44.17;100380.94;5038283;28;45347;-72
2022/11/03 07:51:44;;;;;;;;;0.00;0.00;;;;;24.11;43.80;100355.16;5037830;28;45340;-72
2022/11/03 07:54:25;;;;;;;;;0.00;0.00;;;;;24.16;43.84;100348.22;5037099;28;45416;-72
2022/11/03 07:56:55;;;;;;;;;2.67;1.33;;;;;24.17;43.76;100351.69;5037708;28;45246;-71
2022/11/03 07:59:31;;;;;;;;;0.00;0.00;;;;;24.17;43.91;100357.00;5038141;28;45383;-73
2022/11/03 08:01:57;;;;;;;;;0.00;0.00;;;;;24.17;43.74;100362.34;5037833;28;45631;-72
2022/11/03 08:04:33;;;;;;;;;0.67;0.67;;;;;24.08;43.74;100356.41;5037575;28;46935;-73
2022/11/03 08:06:58;;;;;;;;;0.00;0.00;;;;;24.16;43.86;100369.47;5037394;28;45506;-73
2022/11/03 08:09:23;;;;;;;;;1.33;1.00;;;;;24.17;43.92;100365.78;5037876;28;45556;-73
2022/11/03 08:11:49;;;;;;;;;0.67;0.67;;;;;24.18;44.14;100361.28;5037990;28;45388;-72
2022/11/03 08:14:15;;;;;;;;;0.00;0.00;;;;;24.18;43.55;100353.31;5036258;28;47909;-73
2022/11/03 08:16:41;;;;;;;;;1.00;0.00;;;;;24.12;43.92;100331.06;5037321;28;45399;-73
2022/11/03 08:19:06;;;;;;;;;0.00;0.00;;;;;24.17;43.68;100339.19;5037592;28;45396;-73
2022/11/03 08:21:32;;;;;;;;;0.00;0.00;;;;;24.16;43.82;100339.41;5037506;28;45312;-73
2022/11/03 08:23:57;;;;;;;;;1.67;0.00;;;;;24.14;43.76;100336.97;5037438;28;46259;-73
2022/11/03 08:26:23;;;;;;;;;0.67;0.67;;;;;24.08;43.64;100329.81;5035044;28;45313;-72
2022/11/03 08:28:48;;;;;;;;;1.00;1.00;;;;;24.12;43.79;100341.69;5037645;28;45456;-72
2022/11/03 08:31:14;;;;;;;;;0.33;0.00;;;;;24.18;43.98;100348.00;5037498;28;45372;-72
2022/11/03 08:33:40;;;;;;;;;1.00;1.00;;;;;24.18;43.91;100342.69;5037302;28;45613;-73
2022/11/03 08:36:05;;;;;;;;;1.00;0.00;;;;;24.18;44.00;100342.69;5037025;28;45436;-72
2022/11/03 08:38:31;;;;;;;;;0.00;0.00;;;;;24.12;43.75;100330.25;5037486;28;45277;-72
2022/11/03 08:40:59;;;;;;;;;2.67;0.00;;;;;23.88;43.86;100285.50;5037423;28;45399;-73
2022/11/03 08:43:25;;;;;;;;;0.00;0.00;;;;;24.17;43.99;100333.88;5037161;28;45371;-73
2022/11/03 08:45:52;;;;;;;;;0.67;0.67;;;;;24.17;43.71;100320.59;5037119;28;45253;-73
2022/11/03 08:48:22;;;;;;;;;1.00;0.00;;;;;24.18;43.46;100313.44;5037326;28;45300;-73
2022/11/03 08:50:49;;;;;;;;;0.67;0.67;;;;;24.07;43.60;100293.66;5036799;28;45444;-72
2022/11/03 08:53:15;;;;;;;;;1.00;0.67;;;;;24.15;43.76;100320.00;5036926;28;47029;-72
2022/11/03 08:55:41;;;;;;;;;3.00;0.00;;;;;24.12;43.72;100312.47;5036866;28;45392;-73
2022/11/03 08:58:07;;;;;;;;;0.00;0.00;;;;;24.13;43.62;100311.41;5037022;28;45419;-72
2022/11/03 09:00:32;;;;;;;;;2.00;0.00;;;;;24.14;43.68;100320.22;5037122;28;45400;-73
2022/11/03 09:02:58;;;;;;;;;1.00;1.00;;;;;24.14;43.92;100298.94;5036903;28;45361;-73
2022/11/03 09:05:23;;;;;;;;;1.00;1.00;;;;;24.14;43.68;100301.59;5035354;28;45374;-73
2022/11/03 09:07:48;;;;;;;;;0.33;0.33;;;;;24.12;43.51;100293.03;5035658;28;45813;-72
2022/11/03 09:10:13;;;;;;;;;1.00;1.00;;;;;24.12;44.01;100288.53;5036882;28;45447;-72
2022/11/03 09:12:39;;;;;;;;;1.00;1.00;;;;;24.14;43.71;100283.81;5036630;28;46145;-72
2022/11/03 09:15:05;;;;;;;;;0.00;0.00;;;;;24.12;43.87;100267.28;5036807;28;45367;-72
2022/11/03 09:17:31;;;;;;;;;0.00;0.00;;;;;24.14;43.57;100264.41;5035188;28;45463;-72
2022/11/03 09:19:56;;;;;;;;;0.00;0.00;;;;;24.15;43.72;100255.38;5035017;28;45607;-72
2022/11/03 09:22:22;;;;;;;;;2.00;0.33;;;;;24.14;43.65;100251.13;5036594;28;45419;-72
2022/11/03 09:24:47;;;;;;;;;0.00;0.00;;;;;24.14;43.55;100245.81;5036361;28;45331;-73
2022/11/03 09:27:12;;;;;;;;;2.00;1.00;;;;;24.14;43.96;100241.31;5036810;28;45303;-72
2022/11/03 09:29:38;;;;;;;;;0.00;0.00;;;;;24.15;43.70;100240.25;5036561;28;45213;-73
2022/11/03 09:32:03;;;;;;;;;0.00;0.00;;;;;24.15;43.77;100242.09;5036437;28;45959;-73
2022/11/03 09:34:29;;;;;;;;;1.00;1.00;;;;;24.13;43.51;100246.81;5036093;28;45187;-72
2022/11/03 09:36:54;;;;;;;;;0.00;0.00;;;;;24.15;43.72;100248.22;5036437;28;45633;-73
2022/11/03 09:39:20;;;;;;;;;0.67;0.67;;;;;24.15;43.61;100258.88;5036593;28;45354;-73
2022/11/03 09:41:45;;;;;;;;;0.00;0.00;;;;;24.16;43.64;100255.19;5036172;28;45488;-72
2022/11/03 09:44:11;;;;;;;;;1.33;1.00;;;;;24.16;43.70;100255.19;5036145;28;45277;-73
2022/11/03 09:46:37;;;;;;;;;1.00;1.00;;;;;24.12;43.29;100248.69;5036373;28;45304;-72
2022/11/03 09:49:04;;;;;;;;;1.00;0.00;;;;;24.16;43.50;100249.88;5036022;28;45498;-73
2022/11/03 09:51:33;;;;;;;;;0.67;0.00;;;;;24.10;43.71;100224.13;5036166;28;46301;-72
2022/11/03 09:54:02;;;;;;;;;0.00;0.00;;;;;24.14;43.99;100235.16;5036138;28;45325;-72
2022/11/03 09:56:29;;;;;;;;;1.00;1.00;;;;;24.15;43.52;100226.97;5036094;28;45387;-72
2022/11/03 09:58:54;;;;;;;;;0.33;0.00;;;;;24.16;44.36;100228.63;5035959;28;45583;-73
2022/11/03 10:01:19;;;;;;;;;1.00;0.00;;;;;24.17;43.67;100229.44;5035910;28;45972;-73
2022/11/03 10:03:45;;;;;;;;;0.67;0.67;;;;;24.14;43.62;100225.34;5035603;28;45344;-72
2022/11/03 10:06:10;;;;;;;;;1.67;1.00;;;;;24.16;43.92;100238.44;5036171;28;45506;-72
2022/11/03 10:08:38;;;;;;;;;1.00;1.00;;;;;24.17;43.40;100229.44;5035826;28;45445;-72
2022/11/03 10:11:08;;;;;;;;;0.33;0.33;;;;;24.16;43.63;100227.78;5035926;28;47090;-73
2022/11/03 10:13:44;;;;;;;;;0.00;0.00;;;;;24.05;43.84;100227.41;5035758;28;45484;-72
2022/11/03 10:16:16;;;;;;;;;0.00;0.00;;;;;24.11;43.73;100230.25;5034872;28;45454;-71
2022/11/03 10:18:42;;;;;;;;;1.00;1.00;;;;;24.16;43.60;100235.78;5035826;28;45416;-73
2022/11/03 10:21:32;;;;;;;;;2.00;1.00;;;;;24.14;43.63;100222.69;5035556;28;46951;-71
2022/11/03 10:23:58;;;;;;;;;0.00;0.00;;;;;24.04;43.56;100201.06;5032981;28;45323;-73
2022/11/03 10:26:23;;;;;;;;;1.00;1.00;;;;;24.13;43.93;100220.22;5035421;28;45698;-73
2022/11/03 10:29:03;;;;;;;;;2.00;1.00;;;;;24.10;43.66;100213.50;5035709;28;45355;-72
2022/11/03 10:31:39;;;;;;;;;0.33;0.33;;;;;24.12;43.86;100203.50;5035138;28;47059;-72
2022/11/03 10:34:22;;;;;;;;;0.67;0.67;;;;;24.12;43.67;100192.03;5035416;28;45394;-72
2022/11/03 10:36:47;;;;;;;;;1.00;1.00;;;;;24.11;43.60;100183.25;5035496;28;45371;-73
2022/11/03 10:39:28;;;;;;;;;1.00;1.00;;;;;24.13;43.50;100169.75;5035580;28;45423;-73
2022/11/03 10:41:58;;;;;;;;;1.67;0.67;;;;;24.12;43.97;100166.28;5035418;28;47094;-73
2022/11/03 10:44:27;;;;;;;;;1.00;0.00;;;;;24.11;43.92;100158.50;5035252;28;45309;-72
2022/11/03 10:47:01;;;;;;;;;0.00;0.00;;;;;24.11;43.46;100162.00;5035063;28;45297;-72
2022/11/03 10:49:31;;;;;;;;;0.00;0.00;;;;;24.09;43.49;100160.56;5035458;28;45488;-72
2022/11/03 10:52:25;;;;;;;;;0.00;0.00;;;;;24.12;43.85;100162.81;5035211;28;46317;-72
2022/11/03 10:54:53;;;;;;;;;1.00;1.00;;;;;24.11;43.60;100162.00;5035182;28;45249;-72
2022/11/03 10:57:20;;;;;;;;;0.00;0.00;;;;;24.03;43.74;100143.63;5035368;28;45383;-72
2022/11/03 10:59:48;;;;;;;;;0.33;0.33;;;;;24.12;43.30;100170.78;5035040;28;45381;-72
2022/11/03 11:02:24;;;;;;;;;0.00;0.00;;;;;24.12;43.38;100155.66;5035034;28;46285;-72
2022/11/03 11:04:55;;;;;;;;;1.00;1.00;;;;;24.12;43.59;100149.53;5035291;28;45329;-72
2022/11/03 11:07:25;;;;;;;;;0.33;0.33;;;;;24.12;43.65;100146.88;5035231;28;45464;-72
2022/11/03 11:09:52;;;;;;;;;0.00;0.00;;;;;23.98;43.76;100124.84;5035261;28;45360;-72
2022/11/03 11:12:23;;;;;;;;;1.33;1.33;;;;;24.06;43.90;100140.53;5035042;28;45369;-72
2022/11/03 11:14:59;;;;;;;;;1.00;0.00;;;;;24.11;43.38;100140.72;5034689;28;45283;-72
2022/11/03 11:17:36;;;;;;;;;0.00;0.00;;;;;24.12;43.42;100128.25;5034774;28;45435;-72
2022/11/03 11:20:23;;;;;;;;;0.00;0.00;;;;;24.12;43.77;100130.91;5035106;28;45401;-72
2022/11/03 11:22:49;;;;;;;;;0.00;0.00;;;;;24.11;43.65;100116.81;5034846;28;46908;-72
2022/11/03 11:25:17;;;;;;;;;0.00;0.00;;;;;24.03;43.54;100109.91;5034679;28;45438;-72
2022/11/03 11:27:53;;;;;;;;;0.00;0.00;;;;;24.12;43.81;100110.47;5034923;28;45363;-72
2022/11/03 11:30:18;;;;;;;;;0.33;0.33;;;;;24.11;43.66;100098.22;5037661;28;45429;-72
2022/11/03 11:32:43;;;;;;;;;2.00;1.00;;;;;24.12;43.67;100086.56;5038199;28;45392;-72
2022/11/03 11:35:15;;;;;;;;;0.00;0.00;;;;;24.12;43.61;100073.28;5038238;28;45347;-72
2022/11/03 11:37:40;;;;;;;;;0.67;0.67;;;;;24.04;43.75;100066.38;5038414;28;45375;-72
2022/11/03 11:40:26;;;;;;;;;1.67;1.67;;;;;24.07;43.74;100067.78;5036920;28;45435;-72
2022/11/03 11:43:10;;;;;;;;;1.00;1.00;;;;;24.12;43.80;100062.66;5033993;28;45463;-72
2022/11/03 11:46:13;;;;;;;;;2.00;0.67;;;;;24.12;43.72;100067.16;5037927;28;45415;-72
2022/11/03 11:48:38;;;;;;;;;0.33;0.33;;;;;24.12;43.50;100075.13;5038240;28;45400;-72
2022/11/03 11:51:09;;;;;;;;;1.00;0.00;;;;;24.01;43.73;100042.88;5038171;28;45466;-72
2022/11/03 11:53:43;;;;;;;;;0.00;0.00;;;;;24.09;43.65;100051.63;5036555;28;46277;-72